createdAt,value
2019-04-26T00:00:52.365Z,96650.33
2019-04-26T00:03:28.994Z,96651.86
2019-04-26T00:05:58.706Z,96651.11
2019-04-26T00:08:27.105Z,96653.03
2019-04-26T00:11:13.937Z,96652.28
2019-04-26T00:13:59.700Z,96650.09
2019-04-26T00:16:32.159Z,96659.95
2019-04-26T00:19:00.544Z,96653.96
2019-04-26T00:21:28.822Z,96667.34
2019-04-26T00:23:57.022Z,96667.32
2019-04-26T00:26:25.178Z,96670.18
2019-04-26T00:28:52.950Z,96673.68
2019-04-26T00:31:21.360Z,96678.69
2019-04-26T00:33:49.424Z,96671.53
2019-04-26T00:36:18.661Z,96666.48
2019-04-26T00:38:46.610Z,96672.64
2019-04-26T00:41:14.595Z,96679.42
2019-04-26T00:43:42.566Z,96684.48
2019-04-26T00:46:10.612Z,96672.64
2019-04-26T00:48:39.169Z,96678.30
2019-04-26T00:51:07.304Z,96677.87
2019-04-26T00:53:35.215Z,96686.20
2019-04-26T00:56:02.988Z,96693.20
2019-04-26T00:58:33.466Z,96700.92
2019-04-26T01:01:01.328Z,96704.12
2019-04-26T01:03:29.229Z,96701.61
2019-04-26T01:06:00.087Z,96691.92
2019-04-26T01:08:28.352Z,96688.65
2019-04-26T01:10:56.431Z,96694.46
2019-04-26T01:13:24.372Z,96689.04
2019-04-26T01:15:52.359Z,96701.22
2019-04-26T01:18:20.238Z,96687.66
2019-04-26T01:20:48.309Z,96686.26
2019-04-26T01:23:17.429Z,96683.17
2019-04-26T01:25:52.463Z,96685.52
2019-04-26T01:28:23.464Z,96681.26
2019-04-26T01:30:51.546Z,96684.53
2019-04-26T01:33:20.120Z,96687.06
2019-04-26T01:35:48.487Z,96687.05
2019-04-26T01:38:16.480Z,96691.31
2019-04-26T01:40:46.026Z,96678.30
2019-04-26T01:43:42.075Z,96667.28
2019-04-26T01:46:17.520Z,96665.14
2019-04-26T01:49:04.614Z,96657.19
2019-04-26T01:51:38.539Z,96643.44
2019-04-26T01:54:08.609Z,96651.57
2019-04-26T01:56:36.519Z,96658.52
2019-04-26T01:59:04.588Z,96660.25
2019-04-26T02:01:44.609Z,96660.44
2019-04-26T02:04:12.651Z,96659.50
2019-04-26T02:06:40.513Z,96656.74
2019-04-26T02:09:10.190Z,96647.45
2019-04-26T02:11:38.309Z,96646.08
2019-04-26T02:14:06.280Z,96645.29
2019-04-26T02:16:34.259Z,96646.03
2019-04-26T02:19:02.270Z,96653.98
2019-04-26T02:21:35.534Z,96662.53
2019-04-26T02:24:21.521Z,96668.77
2019-04-26T02:26:49.502Z,96648.42
2019-04-26T02:29:18.024Z,96651.87
2019-04-26T02:31:47.207Z,96666.80
2019-04-26T02:34:15.130Z,96665.66
2019-04-26T02:36:57.359Z,96654.20
2019-04-26T02:39:16.971Z,96657.48
2019-04-26T02:41:45.466Z,96659.62
2019-04-26T02:44:13.531Z,96664.31
2019-04-26T02:46:57.754Z,96658.47
2019-04-26T02:49:34.201Z,96649.35
2019-04-26T02:52:05.649Z,96658.27
2019-04-26T02:54:47.291Z,96661.92
2019-04-26T02:57:23.226Z,96647.38
2019-04-26T02:59:51.317Z,96652.38
2019-04-26T03:02:22.487Z,96649.11
2019-04-26T03:04:51.107Z,96655.69
2019-04-26T03:07:22.033Z,96659.52
2019-04-26T03:09:50.446Z,96656.67
2019-04-26T03:12:18.349Z,96643.63
2019-04-26T03:14:53.750Z,96640.92
2019-04-26T03:17:36.131Z,96643.07
2019-04-26T03:20:06.579Z,96652.98
2019-04-26T03:22:42.710Z,96661.47
2019-04-26T03:25:15.278Z,96661.84
2019-04-26T03:28:11.192Z,96672.83
2019-04-26T03:30:49.043Z,96666.10
2019-04-26T03:33:29.729Z,96660.27
2019-04-26T03:36:15.951Z,96657.16
2019-04-26T03:38:58.931Z,96667.20
2019-04-26T03:41:34.367Z,96667.16
2019-04-26T03:44:07.050Z,96670.46
2019-04-26T03:46:40.910Z,96679.15
2019-04-26T03:49:32.095Z,96681.32
2019-04-26T03:52:18.149Z,96677.57
2019-04-26T03:54:46.453Z,96685.11
2019-04-26T03:57:23.040Z,96683.22
2019-04-26T04:00:20.703Z,96680.84
2019-04-26T04:03:10.760Z,96684.56
2019-04-26T04:05:44.179Z,96689.98
2019-04-26T04:08:14.877Z,96687.05
2019-04-26T04:10:47.539Z,96699.67
2019-04-26T04:13:40.844Z,96705.68
2019-04-26T04:16:13.042Z,96699.67
2019-04-26T04:18:43.863Z,96703.88
2019-04-26T04:21:20.738Z,96706.13
2019-04-26T04:23:51.449Z,96717.22
2019-04-26T04:26:21.887Z,96702.38
2019-04-26T04:29:18.421Z,96699.19
2019-04-26T04:31:48.100Z,96713.10
2019-04-26T04:34:20.708Z,96705.39
2019-04-26T04:36:51.310Z,96724.56
2019-04-26T04:39:23.209Z,96709.27
2019-04-26T04:42:11.757Z,96707.12
2019-04-26T04:45:00.429Z,96719.34
2019-04-26T04:47:41.301Z,96711.75
2019-04-26T04:50:32.857Z,96720.92
2019-04-26T04:53:02.718Z,96729.78
2019-04-26T04:55:43.505Z,96732.29
2019-04-26T04:58:13.635Z,96735.76
2019-04-26T05:00:51.343Z,96742.59
2019-04-26T05:03:26.504Z,96753.00
2019-04-26T05:06:07.604Z,96745.61
2019-04-26T05:08:44.436Z,96751.28
2019-04-26T05:11:17.056Z,96753.43
2019-04-26T05:13:47.828Z,96754.36
2019-04-26T05:16:38.889Z,96764.69
2019-04-26T05:19:27.363Z,96762.23
2019-04-26T05:22:14.500Z,96766.53
2019-04-26T05:25:01.589Z,96771.52
2019-04-26T05:30:57.760Z,96782.62
2019-04-26T05:36:56.835Z,96789.34
2019-04-26T05:39:43.886Z,96777.28
2019-04-26T05:48:25.215Z,96794.67
2019-04-26T05:57:42.461Z,96806.84
2019-04-26T06:00:39.987Z,96829.91
2019-04-26T06:03:30.091Z,96828.88
2019-04-26T06:06:36.184Z,96841.10
2019-04-26T06:09:42.314Z,96825.54
2019-04-26T06:24:31.387Z,96840.59
2019-04-26T06:27:37.405Z,96860.22
2019-04-26T06:30:24.895Z,96858.67
2019-04-26T06:33:12.099Z,96861.55
2019-04-26T06:41:59.040Z,96859.46
2019-04-26T06:47:41.944Z,96864.15
2019-04-26T06:50:33.799Z,96873.11
2019-04-26T06:53:20.981Z,96879.55
2019-04-26T06:56:09.967Z,96881.64
2019-04-26T06:58:57.916Z,96865.22
2019-04-26T07:04:17.330Z,96883.28
2019-04-26T07:07:04.618Z,96885.14
2019-04-26T07:09:34.935Z,96870.51
2019-04-26T07:15:28.719Z,96879.32
2019-04-26T07:18:12.764Z,96887.09
2019-04-26T07:21:01.575Z,96892.88
2019-04-26T07:24:08.468Z,96883.02
2019-04-26T07:26:55.635Z,96877.63
2019-04-26T07:29:42.740Z,96885.28
2019-04-26T07:32:15.316Z,96891.86
2019-04-26T07:38:12.672Z,96889.59
2019-04-26T07:47:14.373Z,96897.79
2019-04-26T07:50:04.043Z,96896.01
2019-04-26T07:52:34.988Z,96904.82
2019-04-26T07:55:22.233Z,96912.80
2019-04-26T07:58:09.372Z,96925.29
2019-04-26T08:06:33.347Z,96928.77
2019-04-26T08:12:14.498Z,96937.08
2019-04-26T08:14:54.148Z,96931.88
2019-04-26T08:17:32.453Z,96925.97
2019-04-26T08:20:10.656Z,96930.91
2019-04-26T08:22:36.877Z,96935.16
2019-04-26T08:25:06.681Z,96945.05
2019-04-26T08:27:34.671Z,96954.23
2019-04-26T08:32:52.927Z,96950.61
2019-04-26T08:38:22.087Z,96963.92
2019-04-26T08:40:45.779Z,96970.23
2019-04-26T08:43:32.833Z,96968.59
2019-04-26T08:46:22.139Z,96966.27
2019-04-26T08:49:09.675Z,96970.97
2019-04-26T08:51:37.788Z,96976.14
2019-04-26T08:59:55.402Z,96983.88
2019-04-26T09:02:44.548Z,96979.53
2019-04-26T09:05:34.845Z,96973.88
2019-04-26T09:08:04.002Z,96978.12
2019-04-26T09:10:32.761Z,96993.48
2019-04-26T09:13:01.000Z,96996.72
2019-04-26T09:15:48.287Z,96903.42
2019-04-26T09:18:16.192Z,97002.39
2019-04-26T09:20:44.502Z,96992.50
2019-04-26T09:23:39.950Z,97005.33
2019-04-26T09:28:56.556Z,96998.09
2019-04-26T09:31:32.128Z,97001.52
2019-04-26T09:34:06.313Z,97004.73
2019-04-26T09:36:32.860Z,97000.53
2019-04-26T09:39:03.910Z,97008.70
2019-04-26T09:41:30.742Z,97008.44
2019-04-26T09:44:19.057Z,97017.91
2019-04-26T09:47:05.962Z,97016.72
2019-04-26T09:49:52.858Z,97030.65
2019-04-26T09:55:13.200Z,97028.77
2019-04-26T09:57:41.102Z,97042.72
2019-04-26T10:03:05.552Z,97045.97
2019-04-26T10:05:32.922Z,97050.10
2019-04-26T10:08:00.811Z,97040.80
2019-04-26T10:13:27.654Z,97051.20
2019-04-26T10:16:14.619Z,97054.47
2019-04-26T10:18:45.434Z,97056.26
2019-04-26T10:21:13.241Z,97051.03
2019-04-26T10:23:41.215Z,97054.08
2019-04-26T10:26:09.217Z,97050.10
2019-04-26T10:28:37.230Z,97054.27
2019-04-26T10:31:05.213Z,97052.13
2019-04-26T10:33:36.632Z,97057.98
2019-04-26T10:36:02.939Z,97062.71
2019-04-26T10:38:30.988Z,97075.34
2019-04-26T10:41:18.311Z,97088.13
2019-04-26T10:43:46.501Z,97086.14
2019-04-26T10:46:14.470Z,97079.84
2019-04-26T10:49:08.954Z,97076.88
2019-04-26T10:54:24.177Z,97087.86
2019-04-26T10:57:11.125Z,97086.37
2019-04-26T10:59:57.974Z,97090.17
2019-04-26T11:05:18.288Z,97095.36
2019-04-26T11:07:42.485Z,97104.13
2019-04-26T11:12:59.662Z,97103.46
2019-04-26T11:15:29.128Z,97108.00
2019-04-26T11:17:57.679Z,97108.62
2019-04-26T11:22:54.183Z,97117.06
2019-04-26T11:25:24.667Z,97120.30
2019-04-26T11:27:51.638Z,97112.00
2019-04-26T11:30:38.745Z,97112.43
2019-04-26T11:33:25.710Z,97118.66
2019-04-26T11:36:12.828Z,97114.85
2019-04-26T11:38:40.770Z,97127.80
2019-04-26T11:41:08.753Z,97116.66
2019-04-26T11:43:36.646Z,97107.08
2019-04-26T11:46:04.984Z,97107.00
2019-04-26T11:48:32.957Z,97111.80
2019-04-26T11:51:01.094Z,97130.06
2019-04-26T11:53:28.995Z,97145.44
2019-04-26T11:56:00.261Z,97140.84
2019-04-26T11:58:26.600Z,97144.15
2019-04-26T12:03:31.974Z,97146.34
2019-04-26T12:06:21.297Z,97144.91
2019-04-26T12:08:51.573Z,97145.23
2019-04-26T12:11:25.874Z,97156.42
2019-04-26T12:13:49.134Z,97159.01
2019-04-26T12:16:18.606Z,97167.70
2019-04-26T12:18:46.718Z,97170.89
2019-04-26T12:21:14.706Z,97171.81
2019-04-26T12:23:42.718Z,97174.97
2019-04-26T12:26:10.497Z,97168.69
2019-04-26T12:28:39.903Z,97179.23
2019-04-26T12:33:43.590Z,97176.78
2019-04-26T12:36:13.391Z,97187.17
2019-04-26T12:38:41.435Z,97198.38
2019-04-26T12:41:39.944Z,97209.59
2019-04-26T12:43:59.673Z,97233.08
2019-04-26T12:46:46.521Z,97241.72
2019-04-26T12:49:14.902Z,97242.77
2019-04-26T12:51:47.123Z,97246.28
2019-04-26T12:54:12.618Z,97259.51
2019-04-26T12:56:41.201Z,97255.77
2019-04-26T12:59:09.204Z,97252.70
2019-04-26T13:01:37.154Z,97245.84
2019-04-26T13:04:08.094Z,97246.55
2019-04-26T13:12:18.509Z,97280.45
2019-04-26T13:15:05.464Z,97285.47
2019-04-26T13:17:52.395Z,97281.53
2019-04-26T13:20:20.358Z,97277.81
2019-04-26T13:22:50.217Z,97290.02
2019-04-26T13:25:26.240Z,97303.10
2019-04-26T13:27:47.353Z,97305.22
2019-04-26T13:32:49.175Z,97306.09
2019-04-26T13:35:18.593Z,97302.00
2019-04-26T13:37:46.751Z,97312.14
2019-04-26T13:40:14.755Z,97316.09
2019-04-26T13:45:48.458Z,97331.70
2019-04-26T13:48:35.268Z,97344.41
2019-04-26T13:51:05.981Z,97353.19
2019-04-26T13:53:35.366Z,97359.88
2019-04-26T13:56:03.475Z,97356.52
2019-04-26T13:58:31.401Z,97358.83
2019-04-26T14:00:59.665Z,97359.47
2019-04-26T14:03:31.491Z,97352.16
2019-04-26T14:05:57.763Z,97342.55
2019-04-26T14:08:25.641Z,97331.54
2019-04-26T14:10:53.680Z,97327.47
2019-04-26T14:13:25.086Z,97330.27
2019-04-26T14:18:40.560Z,97347.47
2019-04-26T14:21:08.664Z,97358.53
2019-04-26T14:23:55.476Z,97361.95
2019-04-26T14:26:39.819Z,97371.23
2019-04-26T14:31:40.224Z,97370.73
2019-04-26T14:34:27.028Z,97363.16
2019-04-26T14:37:05.868Z,97354.88
2019-04-26T14:39:35.230Z,97352.31
2019-04-26T14:41:57.076Z,97338.47
2019-04-26T14:44:27.212Z,97332.63
2019-04-26T14:46:56.792Z,97335.34
2019-04-26T14:49:24.734Z,97340.55
2019-04-26T14:51:56.077Z,97364.36
2019-04-26T14:54:22.924Z,97372.23
2019-04-26T14:56:52.451Z,97378.66
2019-04-26T14:59:45.534Z,97387.59
2019-04-26T15:02:28.153Z,97395.20
2019-04-26T15:05:15.085Z,97397.55
2019-04-26T15:07:49.483Z,97400.85
2019-04-26T15:10:13.973Z,97393.42
2019-04-26T15:12:48.255Z,97387.94
2019-04-26T15:15:12.074Z,97389.00
2019-04-26T15:17:40.060Z,97407.84
2019-04-26T15:20:27.423Z,97409.84
2019-04-26T15:22:55.335Z,97399.20
2019-04-26T15:25:23.101Z,97375.80
2019-04-26T15:27:52.461Z,97362.24
2019-04-26T15:30:22.034Z,97366.88
2019-04-26T15:32:50.502Z,97372.09
2019-04-26T15:35:18.499Z,97367.31
2019-04-26T15:37:46.311Z,97365.37
2019-04-26T15:40:35.069Z,97377.56
2019-04-26T15:46:15.885Z,97398.91
2019-04-26T15:49:04.754Z,97394.55
2019-04-26T15:51:33.389Z,97400.11
2019-04-26T15:54:01.165Z,97400.47
2019-04-26T15:56:29.054Z,97387.62
2019-04-26T15:58:56.942Z,97382.05
2019-04-26T16:01:24.957Z,97388.11
2019-04-26T16:03:53.205Z,97410.45
2019-04-26T16:06:21.023Z,97434.27
2019-04-26T16:08:49.012Z,97424.77
2019-04-26T16:11:17.010Z,97402.58
2019-04-26T16:13:51.292Z,97402.44
2019-04-26T16:16:16.498Z,97400.52
2019-04-26T16:18:44.182Z,97402.94
2019-04-26T16:21:17.666Z,97406.94
2019-04-26T16:23:50.861Z,97411.72
2019-04-26T16:26:12.766Z,97417.23
2019-04-26T16:29:18.290Z,97419.34
2019-04-26T16:32:06.747Z,97414.58
2019-04-26T16:34:35.409Z,97394.15
2019-04-26T16:37:03.316Z,97375.47
2019-04-26T16:39:38.346Z,97375.59
2019-04-26T16:42:05.120Z,97378.95
2019-04-26T16:44:31.829Z,97380.09
2019-04-26T16:47:03.664Z,97391.68
2019-04-26T16:49:29.834Z,97396.86
2019-04-26T16:52:02.037Z,97406.41
2019-04-26T16:54:27.581Z,97409.86
2019-04-26T16:56:58.926Z,97407.20
2019-04-26T16:59:26.809Z,97405.94
2019-04-26T17:01:54.808Z,97411.36
2019-04-26T17:04:43.602Z,97424.61
2019-04-26T17:07:13.276Z,97425.02
2019-04-26T17:09:56.992Z,97417.03
2019-04-26T17:14:57.511Z,97419.60
2019-04-26T17:17:25.327Z,97419.60
2019-04-26T17:19:53.105Z,97420.66
2019-04-26T17:25:24.231Z,97427.31
2019-04-26T17:27:50.068Z,97420.59
2019-04-26T17:33:29.128Z,97429.28
2019-04-26T17:38:44.198Z,97431.55
2019-04-26T17:41:13.582Z,97434.00
2019-04-26T17:43:47.680Z,97429.93
2019-04-26T17:49:00.413Z,97434.39
2019-04-26T17:51:28.334Z,97431.43
2019-04-26T17:54:18.861Z,97432.64
2019-04-26T17:56:30.520Z,97425.87
2019-04-26T17:58:55.434Z,97426.01
2019-04-26T18:01:41.966Z,97422.16
2019-04-26T18:03:55.767Z,97407.90
2019-04-26T18:06:29.460Z,97411.22
2019-04-26T18:08:54.975Z,97405.09
2019-04-26T18:14:20.799Z,97414.58
2019-04-26T18:19:33.456Z,97419.09
2019-04-26T18:22:06.680Z,97421.50
2019-04-26T18:24:35.094Z,97427.22
2019-04-26T18:29:37.969Z,97427.83
2019-04-26T18:32:05.944Z,97422.86
2019-04-26T18:34:37.190Z,97424.35
2019-04-26T18:42:10.612Z,97416.98
2019-04-26T18:44:43.403Z,97430.34
2019-04-26T18:47:28.349Z,97437.47
2019-04-26T18:55:30.383Z,97444.83
2019-04-26T18:58:03.612Z,97443.69
2019-04-26T19:00:47.821Z,97442.88
2019-04-26T19:03:16.175Z,97449.44
2019-04-26T19:05:44.293Z,97449.65
2019-04-26T19:08:12.751Z,97453.30
2019-04-26T19:10:43.562Z,97456.64
2019-04-26T19:13:35.770Z,97463.34
2019-04-26T19:16:18.897Z,97469.28
2019-04-26T19:19:05.838Z,97471.83
2019-04-26T19:21:54.571Z,97462.90
2019-04-26T19:24:23.047Z,97459.42
2019-04-26T19:26:52.516Z,97452.16
2019-04-26T19:29:27.052Z,97457.02
2019-04-26T19:31:51.907Z,97459.11
2019-04-26T19:34:19.698Z,97457.93
2019-04-26T19:39:35.833Z,97465.50
2019-04-26T19:42:06.220Z,97465.84
2019-04-26T19:44:34.828Z,97459.98
2019-04-26T19:47:22.688Z,97460.98
2019-04-26T19:49:56.947Z,97457.13
2019-04-26T19:52:45.026Z,97461.78
2019-04-26T19:55:41.804Z,97460.33
2019-04-26T19:58:16.111Z,97460.33
2019-04-26T20:00:43.466Z,97465.65
2019-04-26T20:03:13.471Z,97469.81
2019-04-26T20:05:44.087Z,97466.89
2019-04-26T20:08:12.049Z,97469.84
2019-04-26T20:10:43.425Z,97473.91
2019-04-26T20:13:15.167Z,97476.97
2019-04-26T20:15:40.231Z,97476.06
2019-04-26T20:18:08.326Z,97481.28
2019-04-26T20:20:36.442Z,97482.91
2019-04-26T20:23:25.023Z,97494.85
2019-04-26T20:25:53.486Z,97492.59
2019-04-26T20:28:22.798Z,97492.45
2019-04-26T20:31:12.192Z,97497.35
2019-04-26T20:33:40.141Z,97489.22
2019-04-26T20:36:08.062Z,97486.30
2019-04-26T20:38:45.515Z,97478.70
2019-04-26T20:41:05.723Z,97488.32
2019-04-26T20:43:36.326Z,97484.71
2019-04-26T20:46:14.459Z,97484.95
2019-04-26T20:48:33.286Z,97490.79
2019-04-26T20:51:02.336Z,97489.22
2019-04-26T20:53:39.901Z,97476.59
2019-04-26T20:56:05.302Z,97491.27
2019-04-26T20:58:30.143Z,97493.32
2019-04-26T21:00:58.068Z,97491.27
2019-04-26T21:03:27.827Z,97489.36
2019-04-26T21:05:59.033Z,97492.28
2019-04-26T21:08:26.885Z,97496.90
2019-04-26T21:10:56.043Z,97493.50
2019-04-26T21:13:30.545Z,97488.32
2019-04-26T21:18:44.279Z,97495.13
2019-04-26T21:21:12.075Z,97495.44
2019-04-26T21:23:42.341Z,97494.19
2019-04-26T21:26:32.089Z,97498.31
2019-04-26T21:29:21.804Z,97495.13
2019-04-26T21:32:07.566Z,97492.09
2019-04-26T21:34:37.664Z,97488.25
2019-04-26T21:37:24.616Z,97495.16
2019-04-26T21:40:11.644Z,97496.38
2019-04-26T21:42:42.627Z,97499.08
2019-04-26T21:45:09.268Z,97504.47
2019-04-26T21:47:37.375Z,97504.92
2019-04-26T21:50:05.471Z,97508.87
2019-04-26T21:52:34.275Z,97506.17
2019-04-26T21:55:04.572Z,97510.58
2019-04-26T21:57:34.873Z,97512.06
2019-04-26T22:00:04.160Z,97514.56
2019-04-26T22:02:34.880Z,97516.36
2019-04-26T22:05:03.506Z,97511.16
2019-04-26T22:07:32.782Z,97514.84
2019-04-26T22:12:55.071Z,97509.44
2019-04-26T22:15:42.128Z,97512.62
2019-04-26T22:18:21.512Z,97507.39
2019-04-26T22:20:52.814Z,97499.47
2019-04-26T22:23:39.918Z,97497.83
2019-04-26T22:26:09.069Z,97500.86
2019-04-26T22:28:37.619Z,97507.73
2019-04-26T22:31:08.470Z,97503.33
2019-04-26T22:33:35.440Z,97500.06
2019-04-26T22:36:03.959Z,97498.02
2019-04-26T22:38:34.012Z,97502.77
2019-04-26T22:41:03.064Z,97499.84
2019-04-26T22:43:54.036Z,97498.52
2019-04-26T22:46:47.311Z,97495.55
2019-04-26T22:51:58.138Z,97495.34
2019-04-26T22:54:26.319Z,97501.76
2019-04-26T22:56:54.304Z,97511.93
2019-04-26T22:59:22.966Z,97511.23
2019-04-26T23:01:53.554Z,97507.73
2019-04-26T23:04:23.572Z,97505.30
2019-04-26T23:06:51.646Z,97504.50
2019-04-26T23:09:20.791Z,97502.80
2019-04-26T23:15:03.067Z,97510.50
2019-04-26T23:17:49.807Z,97518.70
2019-04-26T23:23:13.490Z,97510.16
2019-04-26T23:25:41.562Z,97505.19
2019-04-26T23:28:09.402Z,97503.38
2019-04-26T23:30:37.333Z,97507.00
2019-04-26T23:33:05.281Z,97505.98
2019-04-26T23:35:37.481Z,97510.73
2019-04-26T23:38:05.193Z,97505.00
2019-04-26T23:40:33.455Z,97510.73
2019-04-26T23:43:02.879Z,97505.80
2019-04-26T23:45:30.907Z,97507.81
2019-04-26T23:47:58.821Z,97508.05
2019-04-26T23:50:29.455Z,97502.16
2019-04-26T23:52:56.361Z,97508.05
2019-04-26T23:55:24.344Z,97502.16
2019-04-26T23:57:53.488Z,97502.64
